Nearby METAR Reports

 

KCRE - North Myrtle Bea, South Carolina, USA
Distance from station: SW 11mi, 18km
Updated: 11/12/2018 8:53pm
Overcast
Overcast
 Wind from SSE
Wind: SSE 9 mph , 15 km/h, Gust: 17 mph , 28 km/h
Temperature: 72°F , 22°C
Dew Point: 64°F , 18°C
Humidity: 78%
Barometer: 30.06 inHg , 1017.9 hPa
Clouds: Overcast
Visibility: 10 miles , 16 km
Cloud details: Overcast 5500 ft
2018/11/13 01:53 KCRE 130153Z AUTO 16008G15KT 10SM OVC055 22/18 A3006 RMK AO1 SLP179 T02170183 $
KCPC - Whiteville, North Carolina, USA
Distance from station: NNW 26mi, 42km
Updated: 11/12/2018 9:00pm
Overcast
Overcast
 Wind from E
Wind: E 3 mph , 6 km/h
Temperature: 63°F , 17°C
Dew Point: 59°F , 15°C
Humidity: 88%
Barometer: 30.06 inHg , 1017.9 hPa
Clouds: Overcast
Visibility: 7 miles , 11 km
Cloud details: Overcast 5000 ft
2018/11/13 02:00 KCPC 130200Z AUTO 10003KT 7SM OVC050 17/15 A3006 RMK AO2 T01650153
 
KMYR - Myrtle Beach, South Carolina, USA
Distance from station: SW 27mi, 43km
Updated: 11/12/2018 8:56pm
Overcast
Overcast
 Wind from SSE
Wind: SSE 14 mph , 22 km/h
Temperature: 70°F , 21°C
Dew Point: 64°F , 18°C
Humidity: 83%
Barometer: 30.07 inHg , 1018.3 hPa
Clouds: Overcast
Visibility: 10 miles , 16 km
Cloud details: Overcast 5000 ft
2018/11/13 01:56 KMYR 130156Z 16012KT 10SM OVC050 21/18 A3007 RMK AO2 SLP183 T02110183
KSUT - Southport, North Carolina, USA
Distance from station: E 28mi, 45km
Updated: 11/12/2018 9:00pm
Overcast
Overcast
 Wind from SE
Wind: SE 9 mph , 15 km/h
Temperature: 70°F , 21°C
Dew Point: 63°F , 17°C
Humidity: 78%
Barometer: 30.08 inHg , 1018.6 hPa
Clouds: Overcast
Visibility: 10 miles , 16 km
Cloud details: Partly cloudy 3900 ft
Overcast 4600 ft
2018/11/13 02:00 KSUT 130200Z AUTO 13008KT 10SM SCT039 OVC046 21/17 A3008 RMK AO2 T02130170
 
KHYW - Conway-Horry Cty, South Carolina, USA
Distance from station: WSW 32mi, 52km
Updated: 11/12/2018 8:55pm
Mostly cloudy
Mostly cloudy
 Wind from calm
Wind: Calm
Temperature: 54°F , 12°C
Dew Point: 54°F , 12°C
Humidity: 100%
Barometer: 30.05 inHg , 1017.6 hPa
Clouds: Mostly cloudy
Visibility: 7 miles , 11 km
Cloud details: Partly cloudy 4500 ft
Mostly cloudy 5500 ft
2018/11/13 01:55 KHYW 130155Z AUTO 00000KT 7SM SCT045 BKN055 12/12 A3005 RMK AO2
KILM - Wilmington, North Carolina, USA
Distance from station: ENE 45mi, 72km
Updated: 11/12/2018 8:53pm
Mostly cloudy
Mostly cloudy
 Wind from SE
Wind: SE 10 mph , 17 km/h, Gust: 20 mph , 31 km/h
Temperature: 72°F , 22°C
Dew Point: 61°F , 16°C
Humidity: 69%
Barometer: 30.09 inHg , 1019 hPa
Clouds: Mostly cloudy
Visibility: 10 miles , 16 km
Cloud details: Partly cloudy 3700 ft
Mostly cloudy 5500 ft
Mostly cloudy 8000 ft
2018/11/13 01:53 KILM 130153Z 14009G17KT 10SM SCT037 BKN055 BKN080 22/16 A3009 RMK AO2 SLP189 T02170161 $
 
KEYF - Elizabethtown, North Carolina, USA
Distance from station: N 47mi, 75km
Updated: 11/12/2018 9:00pm
Overcast
Overcast
 Wind from E
Wind: E 5 mph , 7 km/h
Temperature: 57°F , 14°C
Dew Point: 57°F , 14°C
Humidity: 100%
Barometer: 30.07 inHg , 1018.3 hPa
Clouds: Overcast
Visibility: 10 miles , 16 km
Cloud details: Overcast 5000 ft
2018/11/13 02:00 KEYF 130200Z AUTO 10004KT 10SM OVC050 14/14 A3007 RMK AO2 T01410137
KMAO - Marion, South Carolina, USA
Distance from station: WNW 47mi, 76km
Updated: 11/12/2018 9:15pm
Overcast
Overcast
 Wind from calm
Wind: Calm
Temperature: 54°F , 12°C
Dew Point: 52°F , 11°C
Humidity: 94%
Barometer: 30.07 inHg , 1018.3 hPa
Clouds: Overcast
Visibility: 7 miles , 11 km
Cloud details: Mostly cloudy 200 ft
Overcast 3400 ft
2018/11/13 02:15 KMAO 130215Z AUTO 00000KT 7SM BKN002 OVC034 12/11 A3007 RMK AO2
 
KLBT - Lumberton, North Carolina, USA
Distance from station: NNW 55mi, 88km
Updated: 11/12/2018 8:54pm
Light rain, Mist, Overcast
Light rain, Mist, Overcast
 Wind from NNW
Wind: NNW 6 mph , 9 km/h
Temperature: 54°F , 12°C
Dew Point: 52°F , 11°C
Humidity: 94%
Barometer: 30.07 inHg , 1018.3 hPa
Summary: Light rain, Mist
Clouds: Overcast
Visibility: 4 miles , 6 km
Cloud details: Mostly cloudy 400 ft
Mostly cloudy 2100 ft
Overcast 3300 ft
2018/11/13 01:54 KLBT 130154Z AUTO 34005KT 4SM -RA BR BKN004 BKN021 OVC033 12/11 A3007 RMK AO2 SLP183 P0004 T01220111
KGGE - Georgetown, South Carolina, USA
Distance from station: SW 60mi, 97km
Updated: 11/12/2018 9:15pm
Light rain, Overcast
Light rain, Overcast
 Wind from SE
Wind: SE 3 mph , 6 km/h
Temperature: 61°F , 16°C
Dew Point: 61°F , 16°C
Humidity: 100%
Barometer: 30.06 inHg , 1017.9 hPa
Summary: Light rain
Clouds: Overcast
Visibility: 2 miles , 3 km
Cloud details: Partly cloudy 1900 ft
Mostly cloudy 3100 ft
Overcast 3900 ft
2018/11/13 02:15 KGGE 130215Z AUTO 14003KT 2SM -RA SCT019 BKN031 OVC039 16/16 A3006 RMK AO2 VIS 1V5 LTG DSNT S P0010
 
KFLO - Florence, South Carolina, USA
Distance from station: WNW 69mi, 111km
Updated: 11/12/2018 8:53pm
Light rain, Mist, Overcast
Light rain, Mist, Overcast
 Wind from NNE
Wind: NNE 10 mph , 17 km/h
Temperature: 50°F , 10°C
Wind Chill: 46°F , 8°C
Dew Point: 50°F , 10°C
Humidity: 100%
Barometer: 30.06 inHg , 1017.9 hPa
Summary: Light rain, Mist
Clouds: Overcast
Visibility: 5 miles , 8 km
Cloud details: Overcast 600 ft
2018/11/13 01:53 KFLO 130153Z 02009KT 5SM -RA BR OVC006 10/10 A3006 RMK AO2 CIG 004V009 SLP179 P0012 T01000100
KCTZ - Clinton, North Carolina, USA
Distance from station: N 74mi, 119km
Updated: 11/12/2018 9:00pm
Overcast
Overcast
 Wind from calm
Wind: Calm
Temperature: 59°F , 15°C
Dew Point: 59°F , 15°C
Humidity: 100%
Barometer: 30.08 inHg , 1018.6 hPa
Clouds: Overcast
Visibility: 10 miles , 16 km
Cloud details: Overcast 4800 ft
2018/11/13 02:00 KCTZ 130200Z AUTO 00000KT 10SM OVC048 15/15 A3008 RMK AO2 T01450145
 
KMEB - Maxton, North Carolina, USA
Distance from station: NW 75mi, 120km
Updated: 11/12/2018 9:05pm
Heavy rain, Mist, Overcast
Heavy rain, Mist, Overcast
 Wind from NE
Wind: NE 8 mph , 13 km/h
Temperature: 52°F , 11°C
Dew Point: 50°F , 10°C
Humidity: 94%
Barometer: 30.09 inHg , 1019 hPa
Summary: Heavy rain, Mist
Clouds: Overcast
Visibility: 2 miles , 3 km
Cloud details: Few Clouds 800 ft
Mostly cloudy 1800 ft
Overcast 2400 ft
2018/11/13 02:05 KMEB 130205Z AUTO 04007KT 2SM +RA BR FEW008 BKN018 OVC024 11/10 A3009 RMK AO2 VIS 1 1/2V3 P0008 T01060100
KCKI - Kingstree, South Carolina, USA
Distance from station: W 75mi, 121km
Updated: 11/11/2018 11:15am
NOT Current
Clear
Clear
 Wind from N
Wind: N 5 mph , 7 km/h
Temperature: 50°F , 10°C
Wind Chill: 48°F , 9°C
Dew Point: 32°F , 0°C
Humidity: 50%
Barometer: 30.38 inHg , 1028.8 hPa
Clouds: Clear
Visibility: 10 miles , 16 km
2018/11/11 16:15 KCKI 111615Z AUTO 01004KT 10SM CLR 10/00 A3038 RMK AO2
 
KFAY - Fayetteville, North Carolina, USA
Distance from station: NNW 75mi, 121km
Updated: 11/12/2018 8:53pm
Light rain, Mist, Overcast
Light rain, Mist, Overcast
 Wind from N
Wind: N 10 mph , 17 km/h
Temperature: 52°F , 11°C
Dew Point: 52°F , 11°C
Humidity: 100%
Barometer: 30.09 inHg , 1019 hPa
Summary: Light rain, Mist
Clouds: Overcast
Visibility: 6 miles , 10 km
Cloud details: Overcast 300 ft
2018/11/13 01:53 KFAY 130153Z 36009KT 6SM -RA BR OVC003 11/11 A3009 RMK AO2 CIG 002V006 SLP186 P0005 T01110106 $
KBBP - Marlboro Cnty, South Carolina, USA
Distance from station: NW 82mi, 132km
Updated: 11/12/2018 8:55pm
Rain, Overcast
Rain, Overcast
 Wind from N
Wind: N 6 mph , 9 km/h
Temperature: 46°F , 8°C
Wind Chill: 43°F , 6°C
Dew Point: 46°F , 8°C
Humidity: 100%
Barometer: 30.08 inHg , 1018.6 hPa
Summary: Rain
Clouds: Overcast
Visibility: 3 miles , 5 km
Cloud details: Mostly cloudy 400 ft
Overcast 1400 ft
2018/11/13 01:55 KBBP 130155Z AUTO 01005KT 3SM RA BKN004 OVC014 08/08 A3008 RMK AO2 P0031
 
KDPL - Kenansville/Dupl, North Carolina, USA
Distance from station: NNE 82mi, 132km
Updated: 11/12/2018 9:00pm
Overcast
Overcast
 Wind from calm
Wind: Calm
Temperature: 59°F , 15°C
Dew Point: 57°F , 14°C
Humidity: 94%
Barometer: 30.11 inHg , 1019.6 hPa
Clouds: Overcast
Visibility: 7 miles , 11 km
Cloud details: Partly cloudy 3800 ft
Mostly cloudy 4800 ft
Overcast 7000 ft
2018/11/13 02:00 KDPL 130200Z AUTO 00000KT 7SM SCT038 BKN048 OVC070 15/14 A3011 RMK AO2
KOAJ - Jacksonville, North Carolina, USA
Distance from station: NE 82mi, 132km
Updated: 11/12/2018 8:56pm
Overcast
Overcast
 Wind from ESE
Wind: ESE 8 mph , 13 km/h
Temperature: 64°F , 18°C
Dew Point: 61°F , 16°C
Humidity: 88%
Barometer: 30.11 inHg , 1019.6 hPa
Clouds: Overcast
Visibility: 10 miles , 16 km
Cloud details: Partly cloudy 4800 ft
Mostly cloudy 7000 ft
Overcast 8500 ft
2018/11/13 01:56 KOAJ 130156Z 11007KT 10SM SCT048 BKN070 OVC085 18/16 A3011 RMK AO2 SLP201 T01780156 PNO $
 
KUDG - Darlington Cnty, South Carolina, USA
Distance from station: WNW 83mi, 134km
Updated: 11/12/2018 9:09pm
Light rain, Overcast
Light rain, Overcast
 Wind from N
Wind: N 6 mph , 9 km/h
Temperature: 46°F , 8°C
Wind Chill: 43°F , 6°C
Dew Point: 46°F , 8°C
Humidity: 100%
Barometer: 30.10 inHg , 1019.3 hPa
Summary: Light rain
Clouds: Overcast
Visibility: 8 miles , 13 km
Cloud details: Mostly cloudy 400 ft
Overcast 1400 ft
2018/11/13 02:09 KUDG 130209Z AUTO 35005KT 8SM -RA BKN004 OVC014 08/08 A3010 RMK AO2 P0002
KNCA - New River Mcas, North Carolina, USA
Distance from station: NE 84mi, 135km
Updated: 11/12/2018 8:56pm
Overcast
Overcast
 Wind from SE
Wind: SE 17 mph , 28 km/h
Temperature: 70°F , 21°C
Dew Point: 63°F , 17°C
Humidity: 78%
Barometer: 30.10 inHg , 1019.3 hPa
Clouds: Overcast
Visibility: 10 miles , 16 km
Cloud details: Mostly cloudy 3800 ft
Overcast 5000 ft
2018/11/13 01:56 KNCA 130156Z AUTO 13015KT 10SM BKN038 OVC050 21/17 A3010 RMK AO2 RAB0058E10 SLP196 P0000 T02060172 $